createdAt,value
2019-02-18T00:00:34.357Z,34.43
2019-02-18T00:01:16.497Z,35.33
2019-02-18T00:01:54.889Z,34.83
2019-02-18T00:02:29.506Z,34.75
2019-02-18T00:03:03.055Z,34.83
2019-02-18T00:03:36.213Z,34.70
2019-02-18T00:04:09.218Z,34.30
2019-02-18T00:04:42.145Z,34.48
2019-02-18T00:05:15.363Z,34.92
2019-02-18T00:05:48.415Z,34.67
2019-02-18T00:06:21.379Z,34.25
2019-02-18T00:06:54.391Z,34.73
2019-02-18T00:07:27.439Z,35.50
2019-02-18T00:08:00.471Z,34.65
2019-02-18T00:08:33.451Z,35.70
2019-02-18T00:09:06.468Z,34.18
2019-02-18T00:09:39.614Z,35.68
2019-02-18T00:10:12.642Z,35.28
2019-02-18T00:10:45.647Z,35.20
2019-02-18T00:11:18.587Z,35.08
2019-02-18T00:11:51.576Z,35.65
2019-02-18T00:12:24.593Z,35.70
2019-02-18T00:12:57.597Z,34.58
2019-02-18T00:13:30.631Z,34.92
2019-02-18T00:14:03.646Z,35.55
2019-02-18T00:14:36.675Z,34.88
2019-02-18T00:15:09.821Z,35.45
2019-02-18T00:15:42.923Z,34.73
2019-02-18T00:16:15.913Z,35.08
2019-02-18T00:16:49.053Z,34.03
2019-02-18T00:17:21.965Z,35.43
2019-02-18T00:17:55.070Z,35.80
2019-02-18T00:18:27.951Z,35.35
2019-02-18T00:19:00.885Z,34.80
2019-02-18T00:19:34.901Z,35.43
2019-02-18T00:20:09.104Z,35.63
2019-02-18T00:20:42.031Z,35.05
2019-02-18T00:21:15.007Z,35.17
2019-02-18T00:21:48.035Z,34.30
2019-02-18T00:22:21.844Z,34.83
2019-02-18T00:22:56.163Z,34.85
2019-02-18T00:23:29.014Z,35.03
2019-02-18T00:24:02.134Z,34.90
2019-02-18T00:24:35.047Z,35.43
2019-02-18T00:25:08.045Z,34.70
2019-02-18T00:25:41.067Z,35.52
2019-02-18T00:26:13.960Z,35.65
2019-02-18T00:26:46.947Z,35.50
2019-02-18T00:27:19.777Z,34.45
2019-02-18T00:27:52.669Z,35.40
2019-02-18T00:28:25.558Z,35.78
2019-02-18T00:28:58.462Z,35.65
2019-02-18T00:29:31.348Z,35.28
2019-02-18T00:30:04.446Z,35.58
2019-02-18T00:30:37.290Z,34.80
2019-02-18T00:31:10.209Z,35.43
2019-02-18T00:31:43.097Z,36.17
2019-02-18T00:32:16.139Z,36.20
2019-02-18T00:32:49.259Z,35.23
2019-02-18T00:33:22.278Z,35.33
2019-02-18T00:33:55.116Z,35.83
2019-02-18T00:34:28.010Z,34.80
2019-02-18T00:35:01.892Z,35.25
2019-02-18T00:35:35.019Z,35.75
2019-02-18T00:36:07.929Z,35.10
2019-02-18T00:36:40.912Z,34.63
2019-02-18T00:37:23.888Z,35.85
2019-02-18T00:37:49.053Z,35.25
2019-02-18T00:38:21.970Z,35.05
2019-02-18T00:38:54.890Z,34.63
2019-02-18T00:39:27.803Z,35.48
2019-02-18T00:40:00.674Z,35.13
2019-02-18T00:40:33.578Z,35.33
2019-02-18T00:41:06.607Z,35.58
2019-02-18T00:41:39.605Z,34.92
2019-02-18T00:42:12.746Z,35.65
2019-02-18T00:42:45.652Z,36.25
2019-02-18T00:43:18.628Z,34.55
2019-02-18T00:43:51.764Z,36.30
2019-02-18T00:44:24.837Z,36.25
2019-02-18T00:44:57.813Z,36.10
2019-02-18T00:45:30.772Z,35.23
2019-02-18T00:46:03.804Z,34.92
2019-02-18T00:46:36.755Z,36.65
2019-02-18T00:47:10.491Z,35.43
2019-02-18T00:47:44.434Z,35.68
2019-02-18T00:48:17.605Z,35.50
2019-02-18T00:48:50.615Z,35.83
2019-02-18T00:49:23.457Z,34.95
2019-02-18T00:49:56.507Z,35.60
2019-02-18T00:50:29.517Z,35.43
2019-02-18T00:51:03.746Z,35.17
2019-02-18T00:51:36.870Z,35.90
2019-02-18T00:52:09.962Z,34.95
2019-02-18T00:52:42.996Z,35.17
2019-02-18T00:53:16.485Z,35.35
2019-02-18T00:53:49.451Z,35.52
2019-02-18T00:54:22.483Z,35.85
2019-02-18T00:54:55.404Z,35.90
2019-02-18T00:55:28.352Z,35.75
2019-02-18T00:56:01.573Z,35.55
2019-02-18T00:56:34.569Z,35.23
2019-02-18T00:57:07.570Z,34.65
2019-02-18T00:57:40.594Z,34.80
2019-02-18T00:58:13.641Z,36.13
2019-02-18T00:58:46.533Z,35.50
2019-02-18T00:59:19.381Z,35.28
2019-02-18T00:59:52.370Z,35.55
2019-02-18T01:00:25.424Z,34.75
2019-02-18T01:00:58.417Z,35.70
2019-02-18T01:01:32.995Z,34.80
2019-02-18T01:02:05.980Z,35.68
2019-02-18T01:02:38.990Z,36.00
2019-02-18T01:03:11.816Z,34.50
2019-02-18T01:03:46.488Z,35.58
2019-02-18T01:04:19.474Z,34.67
2019-02-18T01:04:52.384Z,36.77
2019-02-18T01:05:25.467Z,34.70
2019-02-18T01:05:58.494Z,36.00
2019-02-18T01:06:31.405Z,35.00
2019-02-18T01:07:04.333Z,36.05
2019-02-18T01:07:37.317Z,35.92
2019-02-18T01:08:10.259Z,36.05
2019-02-18T01:08:43.270Z,36.35
2019-02-18T01:09:17.836Z,34.75
2019-02-18T01:09:50.852Z,35.20
2019-02-18T01:10:25.642Z,35.23
2019-02-18T01:10:58.571Z,35.15
2019-02-18T01:11:31.622Z,35.48
2019-02-18T01:12:04.717Z,35.75
2019-02-18T01:12:37.850Z,35.23
2019-02-18T01:13:10.843Z,34.95
2019-02-18T01:13:43.924Z,36.13
2019-02-18T01:14:16.942Z,36.23
2019-02-18T01:14:49.848Z,35.63
2019-02-18T01:15:22.860Z,36.40
2019-02-18T01:15:55.773Z,35.68
2019-02-18T01:16:28.644Z,36.48
2019-02-18T01:17:01.646Z,36.17
2019-02-18T01:17:34.664Z,35.85
2019-02-18T01:18:07.686Z,36.35
2019-02-18T01:18:40.880Z,35.92
2019-02-18T01:19:13.945Z,36.65
2019-02-18T01:19:47.866Z,35.03
2019-02-18T01:20:20.976Z,36.83
2019-02-18T01:20:54.012Z,35.92
2019-02-18T01:21:26.991Z,35.70
2019-02-18T01:21:59.895Z,35.75
2019-02-18T01:22:32.802Z,35.98
2019-02-18T01:23:05.796Z,35.25
2019-02-18T01:23:39.112Z,35.63
2019-02-18T01:24:12.012Z,35.92
2019-02-18T01:24:45.046Z,35.92
2019-02-18T01:25:18.122Z,36.30
2019-02-18T01:25:51.046Z,35.85
2019-02-18T01:26:23.997Z,35.78
2019-02-18T01:26:56.997Z,35.80
2019-02-18T01:27:29.961Z,35.38
2019-02-18T01:28:03.204Z,36.08
2019-02-18T01:28:36.142Z,35.58
2019-02-18T01:29:09.070Z,35.95
2019-02-18T01:29:41.958Z,36.05
2019-02-18T01:30:15.115Z,35.65
2019-02-18T01:30:49.016Z,36.20
2019-02-18T01:31:21.918Z,35.70
2019-02-18T01:31:55.026Z,36.60
2019-02-18T01:32:28.064Z,36.08
2019-02-18T01:33:01.126Z,35.58
2019-02-18T01:33:34.142Z,36.98
2019-02-18T01:34:07.020Z,34.70
2019-02-18T01:34:40.025Z,34.80
2019-02-18T01:35:13.245Z,35.58
2019-02-18T01:35:46.299Z,35.70
2019-02-18T01:36:19.300Z,36.15
2019-02-18T01:36:52.236Z,36.83
2019-02-18T01:37:25.160Z,36.15
2019-02-18T01:37:58.096Z,35.95
2019-02-18T01:38:31.108Z,35.38
2019-02-18T01:39:05.314Z,36.13
2019-02-18T01:39:39.313Z,35.48
2019-02-18T01:40:12.952Z,35.65
2019-02-18T01:40:45.946Z,35.17
2019-02-18T01:41:18.974Z,35.60
2019-02-18T01:41:51.902Z,36.05
2019-02-18T01:42:24.976Z,35.78
2019-02-18T01:42:57.989Z,35.28
2019-02-18T01:43:31.359Z,35.73
2019-02-18T01:44:04.352Z,35.92
2019-02-18T01:44:37.189Z,36.60
2019-02-18T01:45:11.612Z,36.25
2019-02-18T01:45:44.642Z,36.77
2019-02-18T01:46:19.282Z,36.13
2019-02-18T01:46:52.354Z,35.98
2019-02-18T01:47:25.446Z,35.95
2019-02-18T01:47:58.518Z,34.95
2019-02-18T01:48:31.473Z,36.28
2019-02-18T01:49:04.745Z,35.48
2019-02-18T01:49:37.886Z,35.63
2019-02-18T01:50:13.171Z,36.75
2019-02-18T01:50:46.208Z,35.08
2019-02-18T01:51:20.794Z,35.65
2019-02-18T01:51:53.775Z,36.45
2019-02-18T01:52:26.616Z,35.73
2019-02-18T01:53:00.806Z,35.40
2019-02-18T01:53:33.796Z,35.17
2019-02-18T01:54:06.763Z,35.03
2019-02-18T01:54:39.791Z,35.70
2019-02-18T01:55:12.872Z,36.08
2019-02-18T01:55:45.990Z,35.83
2019-02-18T01:56:19.114Z,35.48
2019-02-18T01:56:52.091Z,35.80
2019-02-18T01:57:25.022Z,35.95
2019-02-18T01:57:57.818Z,35.05
2019-02-18T01:58:30.725Z,35.40
2019-02-18T01:59:05.258Z,34.88
2019-02-18T01:59:38.101Z,35.33
2019-02-18T02:00:13.999Z,36.30
2019-02-18T02:00:47.052Z,35.63
2019-02-18T02:01:19.933Z,35.70
2019-02-18T02:01:52.986Z,36.25
2019-02-18T02:02:25.880Z,34.75
2019-02-18T02:02:59.027Z,34.80
2019-02-18T02:03:33.121Z,34.63
2019-02-18T02:04:06.152Z,34.92
2019-02-18T02:04:38.922Z,35.73
2019-02-18T02:05:14.418Z,34.95
2019-02-18T02:05:47.315Z,35.73
2019-02-18T02:06:20.468Z,35.48
2019-02-18T02:06:53.637Z,35.52
2019-02-18T02:07:26.577Z,35.63
2019-02-18T02:07:59.619Z,35.50
2019-02-18T02:08:33.695Z,35.23
2019-02-18T02:09:11.424Z,35.23
2019-02-18T02:09:44.571Z,34.38
2019-02-18T02:10:17.616Z,35.13
2019-02-18T02:10:50.570Z,35.65
2019-02-18T02:11:23.695Z,35.73
2019-02-18T02:11:56.698Z,34.58
2019-02-18T02:12:29.739Z,34.83
2019-02-18T02:13:32.068Z,34.85
2019-02-18T02:14:05.033Z,35.90
2019-02-18T02:14:38.101Z,35.17
2019-02-18T02:15:16.699Z,35.30
2019-02-18T02:15:49.600Z,34.08
2019-02-18T02:16:22.620Z,34.98
2019-02-18T02:16:55.703Z,34.75
2019-02-18T02:17:28.664Z,35.38
2019-02-18T02:18:01.602Z,35.00
2019-02-18T02:18:35.809Z,34.70
2019-02-18T02:19:08.856Z,34.73
2019-02-18T02:19:41.947Z,33.88
2019-02-18T02:20:15.019Z,34.10
2019-02-18T02:20:48.069Z,34.25
2019-02-18T02:21:21.032Z,35.17
2019-02-18T02:21:53.871Z,33.83
2019-02-18T02:22:26.959Z,34.20
2019-02-18T02:22:59.967Z,33.80
2019-02-18T02:23:32.805Z,34.38
2019-02-18T02:24:05.725Z,34.33
2019-02-18T02:24:38.666Z,34.27
2019-02-18T02:25:11.714Z,34.43
2019-02-18T02:25:44.676Z,35.00
2019-02-18T02:26:17.701Z,33.73
2019-02-18T02:26:50.557Z,35.03
2019-02-18T02:27:23.487Z,33.73
2019-02-18T02:27:56.441Z,34.70
2019-02-18T02:28:29.575Z,34.08
2019-02-18T02:29:02.739Z,34.65
2019-02-18T02:29:35.781Z,34.45
2019-02-18T02:30:09.057Z,33.35
2019-02-18T02:30:42.211Z,34.35
2019-02-18T02:31:15.295Z,34.90
2019-02-18T02:31:48.413Z,34.65
2019-02-18T02:32:21.380Z,33.85
2019-02-18T02:32:54.236Z,34.67
2019-02-18T02:33:27.304Z,34.80
2019-02-18T02:34:00.267Z,34.80
2019-02-18T02:34:33.272Z,34.75
2019-02-18T02:35:06.330Z,35.15
2019-02-18T02:35:39.389Z,34.30
2019-02-18T02:36:12.475Z,35.75
2019-02-18T02:36:47.088Z,35.50
2019-02-18T02:37:21.165Z,36.20
2019-02-18T02:37:54.107Z,36.20
2019-02-18T02:38:28.262Z,35.50
2019-02-18T02:39:01.222Z,35.88
2019-02-18T02:39:35.987Z,35.30
2019-02-18T02:40:09.236Z,36.28
2019-02-18T02:40:42.544Z,35.17
2019-02-18T02:41:15.468Z,36.23
2019-02-18T02:41:48.337Z,36.38
2019-02-18T02:42:21.331Z,36.28
2019-02-18T02:42:54.299Z,36.17
2019-02-18T02:43:27.370Z,35.83
2019-02-18T02:44:00.322Z,35.25
2019-02-18T02:44:33.411Z,35.45
2019-02-18T02:45:06.553Z,36.55
2019-02-18T02:45:39.749Z,35.98
2019-02-18T02:46:12.666Z,35.35
2019-02-18T02:46:45.590Z,35.52
2019-02-18T02:47:18.469Z,35.90
2019-02-18T02:47:51.435Z,36.20
2019-02-18T02:48:24.507Z,36.25
2019-02-18T02:48:57.471Z,35.92
2019-02-18T02:49:30.558Z,35.88
2019-02-18T02:50:03.783Z,36.28
2019-02-18T02:50:36.699Z,35.98
2019-02-18T02:51:09.759Z,36.40
2019-02-18T02:51:42.803Z,36.48
2019-02-18T02:52:15.761Z,37.60
2019-02-18T02:52:48.771Z,37.25
2019-02-18T02:53:21.791Z,36.20
2019-02-18T02:53:54.725Z,36.58
2019-02-18T02:54:28.719Z,35.80
2019-02-18T02:55:01.772Z,37.13
2019-02-18T02:55:34.744Z,35.90
2019-02-18T02:56:07.682Z,36.85
2019-02-18T02:56:40.626Z,37.20
2019-02-18T02:57:13.497Z,36.77
2019-02-18T02:57:46.283Z,36.48
2019-02-18T02:58:19.312Z,37.80
2019-02-18T02:58:53.311Z,37.03
2019-02-18T02:59:26.142Z,36.50
2019-02-18T02:59:59.029Z,36.93
2019-02-18T03:00:32.076Z,36.83
2019-02-18T03:01:06.738Z,36.40
2019-02-18T03:01:39.766Z,36.75
2019-02-18T03:02:12.673Z,36.60
2019-02-18T03:02:45.594Z,36.65
2019-02-18T03:03:18.615Z,37.60
2019-02-18T03:03:51.523Z,36.93
2019-02-18T03:04:24.409Z,37.00
2019-02-18T03:04:57.263Z,37.05
2019-02-18T03:05:30.163Z,37.17
2019-02-18T03:06:03.157Z,38.35
2019-02-18T03:06:36.054Z,37.55
2019-02-18T03:07:08.975Z,37.28
2019-02-18T03:07:43.173Z,37.40
2019-02-18T03:08:20.399Z,37.17
2019-02-18T03:08:50.969Z,37.40
2019-02-18T03:09:23.939Z,37.10
2019-02-18T03:09:56.968Z,37.00
2019-02-18T03:10:29.996Z,36.65
2019-02-18T03:11:03.129Z,36.93
2019-02-18T03:11:36.085Z,37.93
2019-02-18T03:12:10.521Z,38.78
2019-02-18T03:12:43.482Z,37.03
2019-02-18T03:13:16.378Z,36.98
2019-02-18T03:13:49.411Z,37.78
2019-02-18T03:14:23.760Z,37.23
2019-02-18T03:14:56.613Z,38.17
2019-02-18T03:15:31.216Z,37.88
2019-02-18T03:16:04.274Z,38.67
2019-02-18T03:16:37.207Z,38.45
2019-02-18T03:17:10.247Z,37.40
2019-02-18T03:17:43.319Z,37.95
2019-02-18T03:18:16.249Z,37.35
2019-02-18T03:18:49.279Z,37.83
2019-02-18T03:19:22.229Z,37.40
2019-02-18T03:19:55.297Z,38.17
2019-02-18T03:20:28.310Z,37.73
2019-02-18T03:21:01.324Z,37.17
2019-02-18T03:21:34.195Z,37.05
2019-02-18T03:22:07.427Z,37.40
2019-02-18T03:22:40.481Z,37.13
2019-02-18T03:23:13.391Z,37.15
2019-02-18T03:23:46.181Z,37.88
2019-02-18T03:24:19.109Z,38.28
2019-02-18T03:25:16.813Z,37.03
2019-02-18T03:25:53.247Z,38.13
2019-02-18T03:26:26.163Z,38.53
2019-02-18T03:26:58.973Z,38.13
2019-02-18T03:27:31.877Z,39.65
2019-02-18T03:29:00.350Z,37.93
2019-02-18T03:30:27.690Z,38.65
2019-02-18T03:31:10.902Z,38.42
2019-02-18T03:31:43.922Z,38.28
2019-02-18T03:32:17.103Z,38.40
2019-02-18T03:32:55.028Z,39.42
2019-02-18T03:34:05.834Z,38.53
2019-02-18T03:34:42.961Z,38.63
2019-02-18T03:35:15.927Z,39.45
2019-02-18T03:35:48.947Z,39.13
2019-02-18T03:36:21.824Z,39.80
2019-02-18T03:36:54.726Z,39.48
2019-02-18T03:37:27.890Z,39.30
2019-02-18T03:38:00.831Z,38.08
2019-02-18T03:38:33.751Z,38.10
2019-02-18T03:39:06.877Z,38.53
2019-02-18T03:39:39.916Z,38.02
2019-02-18T03:40:13.000Z,38.23
2019-02-18T03:40:45.998Z,39.30
2019-02-18T03:41:18.936Z,38.92
2019-02-18T03:41:51.970Z,37.53
2019-02-18T03:42:24.856Z,39.08
2019-02-18T03:42:57.965Z,38.75
2019-02-18T03:43:31.151Z,38.90
2019-02-18T03:44:04.166Z,39.03
2019-02-18T03:44:36.983Z,39.00
2019-02-18T03:45:10.016Z,38.05
2019-02-18T03:45:43.005Z,37.73
2019-02-18T03:46:15.929Z,39.08
2019-02-18T03:46:50.751Z,38.92
2019-02-18T03:47:24.922Z,38.15
2019-02-18T03:47:57.840Z,37.83
2019-02-18T03:48:30.733Z,37.90
2019-02-18T03:49:03.760Z,38.67
2019-02-18T03:49:36.672Z,38.35
2019-02-18T03:50:09.784Z,37.90
2019-02-18T03:50:42.769Z,39.03
2019-02-18T03:51:15.765Z,37.95
2019-02-18T03:51:48.801Z,38.28
2019-02-18T03:52:21.815Z,37.95
2019-02-18T03:52:54.715Z,37.63
2019-02-18T03:53:27.891Z,38.20
2019-02-18T03:54:00.945Z,38.08
2019-02-18T03:54:33.980Z,38.42
2019-02-18T03:55:07.896Z,38.48
2019-02-18T03:55:41.274Z,38.15
2019-02-18T03:56:14.265Z,39.13
2019-02-18T03:56:47.195Z,39.00
2019-02-18T03:57:20.195Z,38.50
2019-02-18T03:57:53.241Z,38.85
2019-02-18T03:58:26.359Z,38.63
2019-02-18T03:58:59.415Z,39.18
2019-02-18T03:59:32.486Z,37.98
2019-02-18T04:00:06.282Z,38.75
2019-02-18T04:00:39.200Z,37.95
2019-02-18T04:01:12.146Z,38.38
2019-02-18T04:01:45.111Z,37.65
2019-02-18T04:02:18.060Z,37.95
2019-02-18T04:02:50.955Z,37.48
2019-02-18T04:03:23.999Z,37.80
2019-02-18T04:03:57.033Z,37.73
2019-02-18T04:04:30.069Z,37.78
2019-02-18T04:05:03.805Z,37.67
2019-02-18T04:05:36.791Z,38.28
2019-02-18T04:06:09.679Z,38.40
2019-02-18T04:06:42.608Z,37.58
2019-02-18T04:07:15.522Z,37.90
2019-02-18T04:07:49.160Z,38.17
2019-02-18T04:08:22.094Z,37.38
2019-02-18T04:08:55.023Z,38.60
2019-02-18T04:09:28.916Z,39.00
2019-02-18T04:10:02.001Z,38.73
2019-02-18T04:10:34.988Z,37.88
2019-02-18T04:11:08.005Z,38.33
2019-02-18T04:11:40.909Z,37.03
2019-02-18T04:12:13.820Z,38.13
2019-02-18T04:12:46.718Z,38.08
2019-02-18T04:13:19.652Z,37.38
2019-02-18T04:13:52.495Z,38.08
2019-02-18T04:14:25.505Z,38.48
2019-02-18T04:14:58.404Z,37.70
2019-02-18T04:15:31.357Z,37.90
2019-02-18T04:16:04.483Z,37.48
2019-02-18T04:16:37.391Z,37.65
2019-02-18T04:17:10.317Z,38.48
2019-02-18T04:17:43.453Z,37.55
2019-02-18T04:18:16.337Z,38.35
2019-02-18T04:18:49.270Z,38.17
2019-02-18T04:19:22.282Z,37.70
2019-02-18T04:19:55.204Z,38.88
2019-02-18T04:20:28.108Z,38.67
2019-02-18T04:21:01.017Z,38.08
2019-02-18T04:21:34.908Z,38.63
2019-02-18T04:22:08.033Z,38.70
2019-02-18T04:22:41.971Z,37.95
2019-02-18T04:23:14.991Z,38.00
2019-02-18T04:23:47.885Z,38.45
2019-02-18T04:24:20.785Z,38.25
2019-02-18T04:24:53.674Z,37.17
2019-02-18T04:25:26.606Z,37.88
2019-02-18T04:25:59.726Z,38.20
2019-02-18T04:26:32.616Z,39.42
2019-02-18T04:27:05.716Z,38.28
2019-02-18T04:27:38.608Z,37.73
2019-02-18T04:28:11.578Z,38.55
2019-02-18T04:28:44.605Z,37.93
2019-02-18T04:29:17.496Z,38.33
2019-02-18T04:29:50.415Z,38.15
2019-02-18T04:30:23.452Z,38.70
2019-02-18T04:30:56.551Z,39.08
2019-02-18T04:31:29.578Z,38.92
2019-02-18T04:32:02.478Z,38.80
2019-02-18T04:32:35.398Z,38.58
2019-02-18T04:33:08.169Z,37.85
2019-02-18T04:33:41.087Z,37.65
2019-02-18T04:34:14.016Z,38.02
2019-02-18T04:34:46.958Z,38.00
2019-02-18T04:35:19.812Z,38.95
2019-02-18T04:35:52.759Z,37.93
2019-02-18T04:36:25.638Z,38.23
2019-02-18T04:36:58.577Z,38.85
2019-02-18T04:37:31.464Z,38.10
2019-02-18T04:38:04.528Z,38.48
2019-02-18T04:38:37.334Z,38.33
2019-02-18T04:39:10.292Z,39.10
2019-02-18T04:39:43.279Z,39.55
2019-02-18T04:40:16.204Z,38.65
2019-02-18T04:40:49.030Z,38.53
2019-02-18T04:41:21.914Z,38.35
2019-02-18T04:41:54.800Z,38.50
2019-02-18T04:42:27.839Z,38.75
2019-02-18T04:43:00.642Z,38.85
2019-02-18T04:43:33.672Z,39.85
2019-02-18T04:44:06.658Z,38.70
2019-02-18T04:44:39.635Z,39.18
2019-02-18T04:45:12.529Z,38.98
2019-02-18T04:45:45.400Z,39.08
2019-02-18T04:46:18.418Z,39.08
2019-02-18T04:46:51.519Z,39.50
2019-02-18T04:47:24.394Z,39.40
2019-02-18T04:47:57.975Z,38.45
2019-02-18T04:48:30.968Z,40.17
2019-02-18T04:49:05.151Z,38.92
2019-02-18T04:49:38.145Z,39.60
2019-02-18T04:50:11.218Z,38.30
2019-02-18T04:50:44.200Z,39.23
2019-02-18T04:51:17.361Z,39.00
2019-02-18T04:51:50.288Z,39.48
2019-02-18T04:52:23.234Z,38.15
2019-02-18T04:52:56.205Z,37.48
2019-02-18T04:53:29.064Z,38.58
2019-02-18T04:54:02.070Z,37.98
2019-02-18T04:54:35.232Z,38.58
2019-02-18T04:55:08.486Z,38.70
2019-02-18T04:55:41.429Z,38.70
2019-02-18T04:56:14.210Z,38.33
2019-02-18T04:56:47.126Z,39.38
2019-02-18T04:57:20.037Z,38.95
2019-02-18T04:57:54.513Z,39.25
2019-02-18T04:58:27.387Z,39.18
2019-02-18T04:59:00.518Z,39.05
2019-02-18T04:59:33.415Z,38.23
2019-02-18T05:00:08.525Z,38.35
2019-02-18T05:00:41.341Z,39.05
2019-02-18T05:01:15.390Z,38.53
2019-02-18T05:01:49.376Z,38.33
2019-02-18T05:02:22.319Z,38.20
2019-02-18T05:02:55.097Z,39.03
2019-02-18T05:03:27.972Z,39.20
2019-02-18T05:04:01.023Z,39.20
2019-02-18T05:04:34.080Z,38.17
2019-02-18T05:05:07.206Z,38.23
2019-02-18T05:05:41.700Z,39.20
2019-02-18T05:06:14.627Z,38.30
2019-02-18T05:06:47.578Z,38.67
2019-02-18T05:07:20.371Z,38.58
2019-02-18T05:07:53.418Z,38.33
2019-02-18T05:08:26.307Z,38.92
2019-02-18T05:09:05.432Z,38.00
2019-02-18T05:09:34.325Z,38.85
2019-02-18T05:10:08.157Z,39.20
2019-02-18T05:10:41.062Z,38.90
2019-02-18T05:11:14.017Z,38.63
2019-02-18T05:11:46.855Z,38.33
2019-02-18T05:12:19.706Z,39.03
2019-02-18T05:12:52.594Z,38.70
2019-02-18T05:13:26.722Z,37.50
2019-02-18T05:13:59.628Z,38.10
2019-02-18T05:14:32.745Z,37.70
2019-02-18T05:15:05.860Z,39.23
2019-02-18T05:15:40.350Z,38.58
2019-02-18T05:16:13.682Z,39.48
2019-02-18T05:16:46.577Z,39.13
2019-02-18T05:17:19.533Z,38.25
2019-02-18T05:17:52.433Z,39.40
2019-02-18T05:18:25.551Z,39.85
2019-02-18T05:18:58.565Z,39.67
2019-02-18T05:19:33.096Z,39.10
2019-02-18T05:20:06.115Z,37.95
2019-02-18T05:20:39.211Z,39.27
2019-02-18T05:21:12.546Z,39.13
2019-02-18T05:21:45.500Z,37.83
2019-02-18T05:22:18.325Z,38.63
2019-02-18T05:22:51.256Z,39.75
2019-02-18T05:23:24.081Z,38.58
2019-02-18T05:23:57.029Z,38.53
2019-02-18T05:24:29.840Z,39.20
2019-02-18T05:25:03.113Z,38.92
2019-02-18T05:25:35.925Z,39.38
2019-02-18T05:26:08.939Z,39.05
2019-02-18T05:26:42.218Z,38.73
2019-02-18T05:27:15.096Z,39.38
2019-02-18T05:27:48.040Z,39.30
2019-02-18T05:28:20.982Z,38.65
2019-02-18T05:28:53.892Z,38.55
2019-02-18T05:29:26.939Z,39.20
2019-02-18T05:29:59.967Z,39.13
2019-02-18T05:30:32.975Z,38.35
2019-02-18T05:31:05.888Z,38.45
2019-02-18T05:31:38.980Z,38.78
2019-02-18T05:32:12.006Z,38.17
2019-02-18T05:32:44.917Z,37.80
2019-02-18T05:33:17.717Z,39.38
2019-02-18T05:33:50.646Z,39.42
2019-02-18T05:34:23.662Z,39.55
2019-02-18T05:34:56.609Z,38.23
2019-02-18T05:35:29.531Z,38.90
2019-02-18T05:36:02.562Z,39.00
2019-02-18T05:36:35.368Z,39.75
2019-02-18T05:37:09.024Z,39.40
2019-02-18T05:37:42.055Z,40.05
2019-02-18T05:38:15.085Z,38.83
2019-02-18T05:38:48.036Z,39.03
2019-02-18T05:39:20.977Z,38.92
2019-02-18T05:39:55.512Z,39.25
2019-02-18T05:40:28.731Z,38.50
2019-02-18T05:41:01.724Z,38.80
2019-02-18T05:41:34.788Z,39.55
2019-02-18T05:42:09.311Z,39.85
2019-02-18T05:42:42.369Z,39.15
2019-02-18T05:43:15.210Z,39.38
2019-02-18T05:43:48.209Z,39.88
2019-02-18T05:44:22.140Z,39.60
2019-02-18T05:44:55.299Z,39.63
2019-02-18T05:45:28.309Z,39.58
2019-02-18T05:46:01.351Z,41.33
2019-02-18T05:46:34.221Z,40.55
2019-02-18T05:47:07.267Z,40.38
2019-02-18T05:47:40.193Z,40.00
2019-02-18T05:48:13.199Z,39.85
2019-02-18T05:48:46.168Z,40.05
2019-02-18T05:49:18.985Z,40.40
2019-02-18T05:49:51.961Z,40.00
2019-02-18T05:50:24.932Z,38.92
2019-02-18T05:50:59.497Z,40.08
2019-02-18T05:51:32.469Z,39.95
2019-02-18T05:52:06.450Z,40.33
2019-02-18T05:52:39.271Z,40.00
2019-02-18T05:53:12.318Z,39.50
2019-02-18T05:53:46.306Z,40.23
2019-02-18T05:54:19.334Z,40.88
2019-02-18T05:54:52.326Z,38.83
2019-02-18T05:55:25.458Z,38.95
2019-02-18T05:55:58.379Z,39.60
2019-02-18T05:56:31.323Z,39.83
2019-02-18T05:57:04.525Z,39.70
2019-02-18T05:57:37.687Z,39.00
2019-02-18T05:58:10.875Z,40.03
2019-02-18T05:58:44.084Z,40.00
2019-02-18T05:59:17.258Z,39.83
2019-02-18T05:59:50.243Z,39.30
2019-02-18T06:00:23.336Z,40.17
2019-02-18T06:00:56.268Z,39.98
2019-02-18T06:01:29.230Z,39.90
2019-02-18T06:02:02.923Z,40.52
2019-02-18T06:02:35.818Z,39.00
2019-02-18T06:03:08.756Z,40.12
2019-02-18T06:03:41.729Z,39.83
2019-02-18T06:04:15.790Z,39.98
2019-02-18T06:04:48.943Z,40.45
2019-02-18T06:05:21.922Z,39.30
2019-02-18T06:05:54.973Z,39.05
2019-02-18T06:06:27.931Z,39.15
2019-02-18T06:07:00.859Z,39.33
2019-02-18T06:07:33.903Z,39.60
2019-02-18T06:08:06.789Z,39.70
2019-02-18T06:08:39.676Z,39.85
2019-02-18T06:09:12.537Z,39.15
2019-02-18T06:09:45.540Z,40.35
2019-02-18T06:10:18.504Z,39.83
2019-02-18T06:10:51.695Z,40.45
2019-02-18T06:11:24.756Z,39.83
2019-02-18T06:11:57.765Z,39.83
2019-02-18T06:12:30.655Z,39.75
2019-02-18T06:13:03.809Z,39.18
2019-02-18T06:13:36.931Z,39.55
2019-02-18T06:14:09.986Z,39.35
2019-02-18T06:14:43.034Z,39.25
2019-02-18T06:15:16.166Z,40.20
2019-02-18T06:15:50.364Z,39.50
2019-02-18T06:16:23.311Z,39.15
2019-02-18T06:16:56.270Z,38.90
2019-02-18T06:17:29.306Z,39.45
2019-02-18T06:18:02.493Z,40.00
2019-02-18T06:18:35.526Z,39.78
2019-02-18T06:19:08.496Z,39.03
2019-02-18T06:19:41.670Z,38.73
2019-02-18T06:20:14.620Z,38.50
2019-02-18T06:20:47.644Z,39.23
2019-02-18T06:21:20.529Z,40.08
2019-02-18T06:21:53.488Z,39.67
2019-02-18T06:22:26.543Z,39.60
2019-02-18T06:22:59.612Z,39.42
2019-02-18T06:23:32.735Z,39.70
2019-02-18T06:24:05.660Z,38.40
2019-02-18T06:24:38.636Z,39.98
2019-02-18T06:25:11.594Z,39.40
2019-02-18T06:25:44.532Z,39.15
2019-02-18T06:26:17.502Z,39.30
2019-02-18T06:26:50.436Z,38.98
2019-02-18T06:27:23.703Z,39.55
2019-02-18T06:27:56.518Z,39.38
2019-02-18T06:28:29.489Z,40.05
2019-02-18T06:29:02.417Z,38.80
2019-02-18T06:29:35.301Z,39.05
2019-02-18T06:30:08.767Z,38.78
2019-02-18T06:30:41.884Z,40.00
2019-02-18T06:31:14.880Z,39.60
2019-02-18T06:31:47.990Z,39.27
2019-02-18T06:32:21.069Z,39.85
2019-02-18T06:32:53.952Z,38.78
2019-02-18T06:33:28.434Z,38.85
2019-02-18T06:34:01.372Z,39.25
2019-02-18T06:34:34.301Z,39.80
2019-02-18T06:35:07.424Z,38.45
2019-02-18T06:35:40.353Z,38.73
2019-02-18T06:36:13.240Z,39.18
2019-02-18T06:36:46.192Z,39.67
2019-02-18T06:37:19.000Z,39.53
2019-02-18T06:37:51.897Z,39.08
2019-02-18T06:38:24.714Z,38.05
2019-02-18T06:38:57.911Z,39.53
2019-02-18T06:39:40.689Z,39.23
2019-02-18T06:40:06.741Z,40.25
2019-02-18T06:40:39.744Z,38.78
2019-02-18T06:41:12.800Z,38.90
2019-02-18T06:41:46.613Z,39.03
2019-02-18T06:42:19.512Z,39.90
2019-02-18T06:42:52.300Z,39.45
2019-02-18T06:43:25.372Z,39.85
2019-02-18T06:43:58.272Z,38.92
2019-02-18T06:44:46.856Z,38.42
2019-02-18T06:45:39.491Z,38.83
2019-02-18T06:46:20.452Z,38.00
2019-02-18T06:46:58.632Z,39.78
2019-02-18T06:47:31.580Z,38.53
2019-02-18T06:48:24.219Z,39.18
2019-02-18T06:49:07.175Z,38.67
2019-02-18T06:49:40.064Z,38.42
2019-02-18T06:50:12.988Z,39.67
2019-02-18T06:50:45.881Z,38.55
2019-02-18T06:51:18.843Z,38.95
2019-02-18T06:51:51.740Z,39.83
2019-02-18T06:52:24.661Z,38.95
2019-02-18T06:52:57.564Z,39.20
2019-02-18T06:53:30.464Z,39.75
2019-02-18T06:54:03.538Z,38.67
2019-02-18T06:54:36.466Z,39.27
2019-02-18T06:55:09.486Z,38.95
2019-02-18T06:55:42.399Z,38.33
2019-02-18T06:56:17.910Z,38.92
2019-02-18T06:57:19.468Z,39.23
2019-02-18T06:58:17.814Z,39.30
2019-02-18T06:58:57.924Z,38.98
2019-02-18T06:59:37.443Z,39.13
2019-02-18T07:00:29.141Z,39.13
2019-02-18T07:01:11.109Z,39.50
2019-02-18T07:01:53.829Z,40.00
2019-02-18T07:02:50.308Z,39.67
2019-02-18T07:03:30.814Z,39.83
2019-02-18T07:04:21.096Z,39.53
2019-02-18T07:05:00.940Z,39.67
2019-02-18T07:05:48.637Z,38.95
2019-02-18T07:06:39.822Z,38.28
2019-02-18T07:07:35.490Z,39.83
2019-02-18T07:08:14.672Z,38.40
2019-02-18T07:08:59.417Z,39.38
2019-02-18T07:09:50.727Z,39.50
2019-02-18T07:10:23.983Z,39.92
2019-02-18T07:11:01.065Z,38.00
2019-02-18T07:11:57.278Z,39.73
2019-02-18T07:12:33.434Z,39.00
2019-02-18T07:13:07.814Z,39.15
2019-02-18T07:13:40.807Z,39.55
2019-02-18T07:14:13.719Z,39.48
2019-02-18T07:14:46.678Z,39.13
2019-02-18T07:15:19.700Z,38.38
2019-02-18T07:15:52.826Z,39.40
2019-02-18T07:16:25.884Z,38.98
2019-02-18T07:16:58.774Z,39.33